createdAt,value
2022-09-12T00:01:06.009Z,7.83
2022-09-12T00:03:36.369Z,10.67
2022-09-12T00:06:09.991Z,8.23
2022-09-12T00:08:38.427Z,11.27
2022-09-12T00:11:08.743Z,10.20
2022-09-12T00:13:41.523Z,9.47
2022-09-12T00:16:16.759Z,10.37
2022-09-12T00:18:47.253Z,10.53
2022-09-12T00:21:16.356Z,10.10
2022-09-12T00:23:44.835Z,9.60
2022-09-12T00:26:13.124Z,10.13
2022-09-12T00:28:42.161Z,9.57
2022-09-12T00:31:13.261Z,9.83
2022-09-12T00:33:41.832Z,9.53
2022-09-12T00:36:14.757Z,8.60
2022-09-12T00:38:43.587Z,8.83
2022-09-12T00:41:17.028Z,8.80
2022-09-12T00:43:46.910Z,7.80
2022-09-12T00:46:23.679Z,6.87
2022-09-12T00:48:57.988Z,6.73
2022-09-12T00:51:28.391Z,7.33
2022-09-12T00:53:57.134Z,7.30
2022-09-12T00:56:26.001Z,9.10
2022-09-12T00:58:59.083Z,9.70
2022-09-12T01:01:31.724Z,8.50
2022-09-12T01:04:01.027Z,8.73
2022-09-12T01:06:36.031Z,9.97
2022-09-12T01:09:05.435Z,8.83
2022-09-12T01:11:35.480Z,9.13
2022-09-12T01:14:03.834Z,9.47
2022-09-12T01:16:32.702Z,8.80
2022-09-12T01:19:20.248Z,8.27
2022-09-12T01:22:06.528Z,8.03
2022-09-12T01:24:57.747Z,9.30
2022-09-12T01:28:03.536Z,9.00
2022-09-12T01:30:51.579Z,8.40
2022-09-12T01:33:48.608Z,8.20
2022-09-12T01:36:30.983Z,8.77
2022-09-12T01:39:03.204Z,7.87
2022-09-12T01:41:45.951Z,7.90
2022-09-12T01:44:21.017Z,8.13
2022-09-12T01:46:57.070Z,9.37
2022-09-12T01:49:30.524Z,9.00
2022-09-12T01:52:04.551Z,9.23
2022-09-12T01:54:38.878Z,9.13
2022-09-12T01:57:12.444Z,7.90
2022-09-12T01:59:44.728Z,8.00
2022-09-12T02:02:18.138Z,8.17
2022-09-12T02:04:52.182Z,7.73
2022-09-12T02:07:23.779Z,8.23
2022-09-12T02:09:57.959Z,8.90
2022-09-12T02:12:36.028Z,8.33
2022-09-12T02:15:09.817Z,8.77
2022-09-12T02:17:44.098Z,8.60
2022-09-12T02:20:26.070Z,8.67
2022-09-12T02:23:09.836Z,8.07
2022-09-12T02:25:43.051Z,8.17
2022-09-12T02:28:15.485Z,7.17
2022-09-12T02:30:49.534Z,9.17
2022-09-12T02:33:26.745Z,8.50
2022-09-12T02:35:59.247Z,8.73
2022-09-12T02:38:34.391Z,7.90
2022-09-12T02:41:02.869Z,8.03
2022-09-12T02:43:31.223Z,8.13
2022-09-12T02:45:59.627Z,8.03
2022-09-12T02:48:32.368Z,8.47
2022-09-12T02:51:00.543Z,7.77
2022-09-12T02:53:29.680Z,8.00
2022-09-12T02:55:58.199Z,8.10
2022-09-12T02:58:31.886Z,7.93
2022-09-12T03:01:12.910Z,6.50
2022-09-12T03:04:00.399Z,6.43
2022-09-12T03:06:36.229Z,6.53
2022-09-12T03:09:13.320Z,6.70
2022-09-12T03:12:11.781Z,6.80
2022-09-12T03:15:02.157Z,6.47
2022-09-12T03:17:43.222Z,6.30
2022-09-12T03:20:18.486Z,7.03
2022-09-12T03:22:54.506Z,7.30
2022-09-12T03:25:29.064Z,7.33
2022-09-12T03:28:01.331Z,7.00
2022-09-12T03:30:29.681Z,7.83
2022-09-12T03:32:58.217Z,8.07
2022-09-12T03:35:27.651Z,7.87
2022-09-12T03:37:55.750Z,7.57
2022-09-12T03:40:24.058Z,7.63
2022-09-12T03:42:52.417Z,8.17
2022-09-12T03:45:20.608Z,7.80
2022-09-12T03:47:48.920Z,7.70
2022-09-12T03:50:17.106Z,7.10
2022-09-12T03:52:46.548Z,7.70
2022-09-12T03:55:14.987Z,7.57
2022-09-12T03:57:43.314Z,6.97
2022-09-12T04:00:17.678Z,8.13
2022-09-12T04:02:48.029Z,8.53
2022-09-12T04:05:16.482Z,8.53
2022-09-12T04:07:44.919Z,7.23
2022-09-12T04:10:16.159Z,7.37
2022-09-12T04:12:44.759Z,7.50
2022-09-12T04:15:13.193Z,7.53
2022-09-12T04:17:41.497Z,7.50
2022-09-12T04:20:10.255Z,7.43
2022-09-12T04:22:38.622Z,7.50
2022-09-12T04:25:07.631Z,7.60
2022-09-12T04:27:37.312Z,7.10
2022-09-12T04:30:06.418Z,7.13
2022-09-12T04:32:34.813Z,8.00
2022-09-12T04:35:02.810Z,7.17
2022-09-12T04:37:31.121Z,7.87
2022-09-12T04:39:59.453Z,7.60
2022-09-12T04:42:27.852Z,7.73
2022-09-12T04:44:57.172Z,7.40
2022-09-12T04:47:25.531Z,8.07
2022-09-12T04:49:53.999Z,8.50
2022-09-12T04:52:22.341Z,7.67
2022-09-12T04:54:50.647Z,7.90
2022-09-12T04:57:18.954Z,8.00
2022-09-12T04:59:47.264Z,7.80
2022-09-12T05:02:16.739Z,7.93
2022-09-12T05:04:46.867Z,7.77
2022-09-12T05:07:15.181Z,8.80
2022-09-12T05:09:43.452Z,8.63
2022-09-12T05:12:11.586Z,8.13
2022-09-12T05:14:40.612Z,8.87
2022-09-12T05:17:09.070Z,7.50
2022-09-12T05:19:39.210Z,8.27
2022-09-12T05:22:07.510Z,7.87
2022-09-12T05:24:38.099Z,7.87
2022-09-12T05:27:06.573Z,7.83
2022-09-12T05:29:34.692Z,8.33
2022-09-12T05:32:03.564Z,8.53
2022-09-12T05:34:31.923Z,8.33
2022-09-12T05:37:01.311Z,8.00
2022-09-12T05:39:29.285Z,8.50
2022-09-12T05:41:57.609Z,9.13
2022-09-12T05:44:26.030Z,8.57
2022-09-12T05:46:54.402Z,9.00
2022-09-12T05:49:22.826Z,8.93
2022-09-12T05:51:51.903Z,9.60
2022-09-12T05:54:21.484Z,9.57
2022-09-12T05:56:50.074Z,9.10
2022-09-12T05:59:20.239Z,9.23
2022-09-12T06:01:49.298Z,10.10
2022-09-12T06:04:18.006Z,9.13
2022-09-12T06:06:46.681Z,8.77
2022-09-12T06:09:16.082Z,10.00
2022-09-12T06:11:46.739Z,10.23
2022-09-12T06:14:17.580Z,10.37
2022-09-12T06:16:46.230Z,9.97
2022-09-12T06:19:17.112Z,11.13
2022-09-12T06:21:45.331Z,10.57
2022-09-12T06:24:13.369Z,10.30
2022-09-12T06:26:41.370Z,10.73
2022-09-12T06:29:13.180Z,11.37
2022-09-12T06:31:43.213Z,10.10
2022-09-12T06:34:14.038Z,10.83
2022-09-12T06:36:44.128Z,11.30
2022-09-12T06:39:14.227Z,11.47
2022-09-12T06:41:44.287Z,10.10
2022-09-12T06:44:16.030Z,10.90
2022-09-12T06:46:44.609Z,10.87
2022-09-12T06:49:13.345Z,11.00
2022-09-12T06:51:43.132Z,12.00
2022-09-12T06:54:13.891Z,12.17
2022-09-12T06:56:42.203Z,12.83
2022-09-12T06:59:10.397Z,12.77
2022-09-12T07:01:40.203Z,11.73
2022-09-12T07:04:08.525Z,12.53
2022-09-12T07:06:39.860Z,13.30
2022-09-12T07:09:11.211Z,13.17
2022-09-12T07:11:41.162Z,12.57
2022-09-12T07:14:10.955Z,14.43
2022-09-12T07:16:40.588Z,14.60
2022-09-12T07:19:09.438Z,15.00
2022-09-12T07:21:40.273Z,12.73
2022-09-12T07:24:10.324Z,13.68
2022-09-12T07:26:39.943Z,14.50
2022-09-12T07:29:32.792Z,14.43
2022-09-12T07:31:58.483Z,14.13
2022-09-12T07:34:26.417Z,14.63
2022-09-12T07:36:54.442Z,15.73
2022-09-12T07:39:22.715Z,13.93
2022-09-12T07:41:50.725Z,13.50
2022-09-12T07:44:18.697Z,15.20
2022-09-12T07:46:47.020Z,16.45
2022-09-12T07:49:16.520Z,15.88
2022-09-12T07:51:44.465Z,15.57
2022-09-12T07:54:12.631Z,15.52
2022-09-12T07:56:40.833Z,15.52
2022-09-12T07:59:08.869Z,15.38
2022-09-12T08:01:37.094Z,15.98
2022-09-12T08:04:05.883Z,16.25
2022-09-12T08:06:37.020Z,16.73
2022-09-12T08:09:06.118Z,16.02
2022-09-12T08:11:34.478Z,17.05
2022-09-12T08:14:03.099Z,16.42
2022-09-12T08:16:32.502Z,15.52
2022-09-12T08:19:02.423Z,16.17
2022-09-12T08:21:32.383Z,16.00
2022-09-12T08:24:04.659Z,15.43
2022-09-12T08:26:33.890Z,16.08
2022-09-12T08:29:02.459Z,15.38
2022-09-12T08:31:31.925Z,16.33
2022-09-12T08:34:00.855Z,16.60
2022-09-12T08:36:29.673Z,16.77
2022-09-12T08:39:00.382Z,17.20
2022-09-12T08:41:35.044Z,17.60
2022-09-12T08:44:30.187Z,16.40
2022-09-12T08:47:18.936Z,18.05
2022-09-12T08:49:54.521Z,18.08
2022-09-12T08:52:28.961Z,18.70
2022-09-12T08:54:57.775Z,16.73
2022-09-12T08:57:27.183Z,19.67
2022-09-12T08:59:55.899Z,19.38
2022-09-12T09:03:03.964Z,20.35
2022-09-12T09:05:42.848Z,16.85
2022-09-12T09:08:31.864Z,19.15
2022-09-12T09:11:07.696Z,22.77
2022-09-12T09:14:07.384Z,20.98
2022-09-12T09:16:39.272Z,20.15
2022-09-12T09:19:12.538Z,20.25
2022-09-12T09:21:45.904Z,22.05
2022-09-12T09:24:17.798Z,22.50
2022-09-12T09:26:50.465Z,20.83
2022-09-12T09:29:21.541Z,19.92
2022-09-12T09:31:53.381Z,20.52
2022-09-12T09:34:23.507Z,20.23
2022-09-12T09:36:53.147Z,20.48
2022-09-12T09:39:41.010Z,22.38
2022-09-12T09:42:28.111Z,20.25
2022-09-12T09:45:01.120Z,21.73
2022-09-12T09:47:29.373Z,19.70
2022-09-12T09:49:57.418Z,20.73
2022-09-12T09:52:30.661Z,23.02
2022-09-12T09:55:00.922Z,21.27
2022-09-12T09:57:44.638Z,20.65
2022-09-12T10:00:27.078Z,22.95
2022-09-12T10:03:11.351Z,22.92
2022-09-12T10:05:48.000Z,23.80
2022-09-12T10:08:24.011Z,21.45
2022-09-12T10:10:57.412Z,20.98
2022-09-12T10:13:31.816Z,23.38
2022-09-12T10:16:03.979Z,22.10
2022-09-12T10:18:40.741Z,20.95
2022-09-12T10:21:23.674Z,20.92
2022-09-12T10:24:01.006Z,22.52
2022-09-12T10:26:37.932Z,20.35
2022-09-12T10:29:15.889Z,20.73
2022-09-12T10:31:49.730Z,22.17
2022-09-12T10:34:25.302Z,22.30
2022-09-12T10:36:59.379Z,22.08
2022-09-12T10:39:28.051Z,23.27
2022-09-12T10:41:56.049Z,21.05
2022-09-12T10:44:27.979Z,22.63
2022-09-12T10:46:58.327Z,22.63
2022-09-12T10:49:30.244Z,22.35
2022-09-12T10:52:17.574Z,20.35
2022-09-12T10:54:46.211Z,21.10
2022-09-12T10:57:44.273Z,21.77
2022-09-12T11:00:18.015Z,19.92
2022-09-12T11:03:02.489Z,23.52
2022-09-12T11:05:52.771Z,21.15
2022-09-12T11:08:40.287Z,20.50
2022-09-12T11:11:19.831Z,22.15
2022-09-12T11:14:02.117Z,22.00
2022-09-12T11:16:43.061Z,18.38
2022-09-12T11:19:32.656Z,20.92
2022-09-12T11:22:14.784Z,20.35
2022-09-12T11:24:59.590Z,21.67
2022-09-12T11:27:41.284Z,20.30
2022-09-12T11:30:12.670Z,20.40
2022-09-12T11:33:05.930Z,17.70
2022-09-12T11:35:40.688Z,18.55
2022-09-12T11:38:26.452Z,19.40
2022-09-12T11:40:56.492Z,16.60
2022-09-12T11:43:39.777Z,19.30
2022-09-12T11:46:18.719Z,18.33
2022-09-12T11:48:52.699Z,18.83
2022-09-12T11:51:26.808Z,19.27
2022-09-12T11:54:13.231Z,18.08
2022-09-12T11:56:46.476Z,18.42
2022-09-12T11:59:25.846Z,17.90
2022-09-12T12:01:59.959Z,18.50
2022-09-12T12:04:41.102Z,20.45
2022-09-12T12:07:12.279Z,19.15
2022-09-12T12:09:48.878Z,19.55
2022-09-12T12:12:20.627Z,18.63
2022-09-12T12:14:50.813Z,19.00
2022-09-12T12:17:21.576Z,18.58
2022-09-12T12:20:04.328Z,20.73
2022-09-12T12:22:36.058Z,18.83
2022-09-12T12:25:29.631Z,18.83
2022-09-12T12:28:01.699Z,20.10
2022-09-12T12:31:03.481Z,19.33
2022-09-12T12:34:01.584Z,19.00
2022-09-12T12:36:41.449Z,16.67
2022-09-12T12:39:47.905Z,18.05
2022-09-12T12:43:02.605Z,19.35
2022-09-12T12:46:05.074Z,18.33
2022-09-12T12:49:02.719Z,18.20
2022-09-12T12:51:46.638Z,19.05
2022-09-12T12:54:52.992Z,16.98
2022-09-12T12:57:38.353Z,18.50
2022-09-12T13:00:09.841Z,19.00
2022-09-12T13:02:50.036Z,17.45
2022-09-12T13:05:22.797Z,18.65
2022-09-12T13:07:56.404Z,18.30
2022-09-12T13:10:28.837Z,17.95
2022-09-12T13:12:59.805Z,18.77
2022-09-12T13:15:50.185Z,19.88
2022-09-12T13:18:25.390Z,21.83
2022-09-12T13:21:00.898Z,19.75
2022-09-12T13:23:30.633Z,19.88
2022-09-12T13:26:00.587Z,18.75
2022-09-12T13:28:30.596Z,17.05
2022-09-12T13:31:03.871Z,17.58
2022-09-12T13:33:38.244Z,18.08
2022-09-12T13:36:30.144Z,18.15
2022-09-12T13:39:10.669Z,17.70
2022-09-12T13:42:10.755Z,18.95
2022-09-12T13:44:44.157Z,17.70
2022-09-12T13:47:16.217Z,18.52
2022-09-12T13:49:47.703Z,19.60
2022-09-12T13:52:19.755Z,19.63
2022-09-12T13:54:51.507Z,20.35
2022-09-12T13:57:34.872Z,20.13
2022-09-12T14:00:07.923Z,19.40
2022-09-12T14:02:37.901Z,18.98
2022-09-12T14:05:22.104Z,18.42
2022-09-12T14:07:56.211Z,20.23
2022-09-12T14:10:33.130Z,18.35
2022-09-12T14:13:03.161Z,19.13
2022-09-12T14:15:33.652Z,18.45
2022-09-12T14:18:03.687Z,17.52
2022-09-12T14:20:36.995Z,17.08
2022-09-12T14:23:08.384Z,18.85
2022-09-12T14:25:41.421Z,16.52
2022-09-12T14:28:14.649Z,18.27
2022-09-12T14:30:42.761Z,15.48
2022-09-12T14:33:21.958Z,19.00
2022-09-12T14:35:53.199Z,16.10
2022-09-12T14:38:31.138Z,18.85
2022-09-12T14:41:02.295Z,17.65
2022-09-12T14:43:32.083Z,19.48
2022-09-12T14:46:02.917Z,16.75
2022-09-12T14:48:33.678Z,17.50
2022-09-12T14:51:03.592Z,17.00
2022-09-12T14:53:36.940Z,18.08
2022-09-12T14:56:09.979Z,18.88
2022-09-12T14:58:38.370Z,17.75
2022-09-12T15:01:27.800Z,17.60
2022-09-12T15:03:57.669Z,18.73
2022-09-12T15:06:30.307Z,15.45
2022-09-12T15:09:00.521Z,17.80
2022-09-12T15:11:28.503Z,18.10
2022-09-12T15:13:57.100Z,16.45
2022-09-12T15:16:25.321Z,17.52
2022-09-12T15:18:53.349Z,17.17
2022-09-12T15:21:22.198Z,17.20
2022-09-12T15:23:53.885Z,17.50
2022-09-12T15:26:23.585Z,17.30
2022-09-12T15:28:52.090Z,18.50
2022-09-12T15:31:25.280Z,17.17
2022-09-12T15:33:53.839Z,15.93
2022-09-12T15:36:24.008Z,18.25
2022-09-12T15:38:54.262Z,17.77
2022-09-12T15:41:23.894Z,18.17
2022-09-12T15:43:52.555Z,18.42
2022-09-12T15:46:20.941Z,18.20
2022-09-12T15:48:49.090Z,18.33
2022-09-12T15:51:20.038Z,17.50
2022-09-12T15:53:49.337Z,17.65
2022-09-12T15:56:21.050Z,19.83
2022-09-12T15:59:05.193Z,17.27
2022-09-12T16:01:33.376Z,19.38
2022-09-12T16:04:03.172Z,17.90
2022-09-12T16:06:37.257Z,18.90
2022-09-12T16:09:05.752Z,19.13
2022-09-12T16:11:35.078Z,19.38
2022-09-12T16:14:03.722Z,19.52
2022-09-12T16:16:31.864Z,18.50
2022-09-12T16:18:59.840Z,19.42
2022-09-12T16:21:27.860Z,19.20
2022-09-12T16:23:55.843Z,18.60
2022-09-12T16:26:24.059Z,17.27
2022-09-12T16:28:57.086Z,20.17
2022-09-12T16:31:25.818Z,20.23
2022-09-12T16:33:54.178Z,20.85
2022-09-12T16:36:23.556Z,19.35
2022-09-12T16:38:53.155Z,18.50
2022-09-12T16:41:24.215Z,17.77
2022-09-12T16:43:52.882Z,19.85
2022-09-12T16:46:23.739Z,19.00
2022-09-12T16:48:54.207Z,18.10
2022-09-12T16:51:24.930Z,17.45
2022-09-12T16:53:53.284Z,18.88
2022-09-12T16:56:21.368Z,18.48
2022-09-12T16:58:49.799Z,17.67
2022-09-12T17:01:19.835Z,18.08
2022-09-12T17:03:49.646Z,17.77
2022-09-12T17:06:19.853Z,18.73
2022-09-12T17:08:50.042Z,17.05
2022-09-12T17:11:21.151Z,18.15
2022-09-12T17:14:06.690Z,18.83
2022-09-12T17:16:36.473Z,17.42
2022-09-12T17:19:06.169Z,16.25
2022-09-12T17:21:35.177Z,17.30
2022-09-12T17:24:03.892Z,15.82
2022-09-12T17:26:31.907Z,17.98
2022-09-12T17:29:00.109Z,17.17
2022-09-12T17:31:29.014Z,17.50
2022-09-12T17:33:58.352Z,17.15
2022-09-12T17:36:29.000Z,18.20
2022-09-12T17:38:56.989Z,17.33
2022-09-12T17:41:27.336Z,16.48
2022-09-12T17:43:58.129Z,16.42
2022-09-12T17:46:28.547Z,15.60
2022-09-12T17:48:58.702Z,15.98
2022-09-12T17:51:30.767Z,16.10
2022-09-12T17:54:01.099Z,14.95
2022-09-12T17:56:30.796Z,17.13
2022-09-12T17:59:00.136Z,15.30
2022-09-12T18:01:47.709Z,15.85
2022-09-12T18:04:16.088Z,16.20
2022-09-12T18:06:48.122Z,15.32
2022-09-12T18:09:17.715Z,16.90
2022-09-12T18:11:46.277Z,16.13
2022-09-12T18:14:14.671Z,14.73
2022-09-12T18:16:43.140Z,15.05
2022-09-12T18:19:11.552Z,13.40
2022-09-12T18:21:39.880Z,13.93
2022-09-12T18:24:10.295Z,12.75
2022-09-12T18:26:38.324Z,13.82
2022-09-12T18:29:07.323Z,13.45
2022-09-12T18:31:35.373Z,13.32
2022-09-12T18:34:03.535Z,15.23
2022-09-12T18:36:32.004Z,12.85
2022-09-12T18:39:01.028Z,12.88
2022-09-12T18:41:30.615Z,12.55
2022-09-12T18:44:00.297Z,13.85
2022-09-12T18:46:29.962Z,12.63
2022-09-12T18:48:58.692Z,14.27
2022-09-12T18:51:31.392Z,13.95
2022-09-12T18:54:00.583Z,12.90
2022-09-12T18:56:32.954Z,13.70
2022-09-12T18:59:02.680Z,14.63
2022-09-12T19:01:32.688Z,13.90
2022-09-12T19:04:04.675Z,13.10
2022-09-12T19:06:34.461Z,13.35
2022-09-12T19:09:07.528Z,14.52
2022-09-12T19:11:38.520Z,15.25
2022-09-12T19:14:07.531Z,13.98
2022-09-12T19:16:36.219Z,13.48
2022-09-12T19:19:04.711Z,13.88
2022-09-12T19:21:34.198Z,15.43
2022-09-12T19:24:06.112Z,13.88
2022-09-12T19:26:34.826Z,15.60
2022-09-12T19:29:04.750Z,13.18
2022-09-12T19:31:33.629Z,15.45
2022-09-12T19:34:02.145Z,13.70
2022-09-12T19:36:47.103Z,13.98
2022-09-12T19:39:16.077Z,14.05
2022-09-12T19:41:44.419Z,15.48
2022-09-12T19:44:14.303Z,13.77
2022-09-12T19:46:42.693Z,14.98
2022-09-12T19:49:12.694Z,14.25
2022-09-12T19:51:41.060Z,15.65
2022-09-12T19:54:09.518Z,13.93
2022-09-12T19:56:37.618Z,13.70
2022-09-12T19:59:05.606Z,14.15
2022-09-12T20:01:37.007Z,13.32
2022-09-12T20:04:06.513Z,14.50
2022-09-12T20:06:34.803Z,14.45
2022-09-12T20:09:02.955Z,14.07
2022-09-12T20:11:31.436Z,15.35
2022-09-12T20:13:59.446Z,14.00
2022-09-12T20:16:29.516Z,13.98
2022-09-12T20:19:01.353Z,14.50
2022-09-12T20:21:34.213Z,12.88
2022-09-12T20:24:04.547Z,14.38
2022-09-12T20:26:32.788Z,14.27
2022-09-12T20:29:01.298Z,13.63
2022-09-12T20:31:30.321Z,14.30
2022-09-12T20:34:00.118Z,12.70
2022-09-12T20:36:28.264Z,15.63
2022-09-12T20:38:57.899Z,13.80
2022-09-12T20:41:26.852Z,13.25
2022-09-12T20:43:56.081Z,13.32
2022-09-12T20:46:25.539Z,13.00
2022-09-12T20:48:54.328Z,13.13
2022-09-12T20:51:26.576Z,12.73
2022-09-12T20:53:55.550Z,13.70
2022-09-12T20:56:24.492Z,14.50
2022-09-12T20:58:52.507Z,13.40
2022-09-12T21:01:21.031Z,11.77
2022-09-12T21:03:49.809Z,12.68
2022-09-12T21:06:18.590Z,13.98
2022-09-12T21:08:48.785Z,12.90
2022-09-12T21:11:17.370Z,12.52
2022-09-12T21:13:45.861Z,13.77
2022-09-12T21:16:15.854Z,14.48
2022-09-12T21:18:44.304Z,13.68
2022-09-12T21:21:14.300Z,14.52
2022-09-12T21:23:42.753Z,13.05
2022-09-12T21:26:12.234Z,14.02
2022-09-12T21:28:40.650Z,14.63
2022-09-12T21:31:09.323Z,13.60
2022-09-12T21:33:37.398Z,13.55
2022-09-12T21:36:07.077Z,14.85
2022-09-12T21:38:35.576Z,14.25
2022-09-12T21:41:05.590Z,13.93
2022-09-12T21:43:35.093Z,16.10
2022-09-12T21:46:03.962Z,14.38
2022-09-12T21:48:32.192Z,12.60
2022-09-12T21:51:00.606Z,14.18
2022-09-12T21:53:29.027Z,13.20
2022-09-12T21:56:02.364Z,13.73
2022-09-12T21:58:30.386Z,12.35
2022-09-12T22:01:00.971Z,12.63
2022-09-12T22:03:29.729Z,12.75
2022-09-12T22:06:02.410Z,13.27
2022-09-12T22:08:31.918Z,13.82
2022-09-12T22:11:02.038Z,12.25
2022-09-12T22:13:31.465Z,12.65
2022-09-12T22:16:02.814Z,13.07
2022-09-12T22:18:33.075Z,12.32
2022-09-12T22:21:02.980Z,12.25
2022-09-12T22:23:48.832Z,11.90
2022-09-12T22:26:17.167Z,12.00
2022-09-12T22:28:47.171Z,12.35
2022-09-12T22:31:17.473Z,12.10
2022-09-12T22:33:45.946Z,13.05
2022-09-12T22:36:14.207Z,12.32
2022-09-12T22:38:42.291Z,11.85
2022-09-12T22:41:13.092Z,10.80
2022-09-12T22:43:41.460Z,11.75
2022-09-12T22:46:12.246Z,12.23
2022-09-12T22:48:42.793Z,11.88
2022-09-12T22:51:11.223Z,10.63
2022-09-12T22:53:39.669Z,10.65
2022-09-12T22:56:08.511Z,10.77
2022-09-12T22:58:37.756Z,11.15
2022-09-12T23:01:06.866Z,10.73
2022-09-12T23:03:36.437Z,10.70
2022-09-12T23:06:07.234Z,10.70
2022-09-12T23:08:36.478Z,10.50
2022-09-12T23:11:05.286Z,11.98
2022-09-12T23:13:33.375Z,10.85
2022-09-12T23:16:02.449Z,12.23
2022-09-12T23:18:30.689Z,11.10
2022-09-12T23:21:00.696Z,10.63
2022-09-12T23:23:30.726Z,10.45
2022-09-12T23:26:06.422Z,10.82
2022-09-12T23:28:34.618Z,10.43
2022-09-12T23:31:02.907Z,10.93
2022-09-12T23:33:32.159Z,11.40
2022-09-12T23:36:01.773Z,11.88
2022-09-12T23:38:32.013Z,11.57
2022-09-12T23:41:00.947Z,9.95
2022-09-12T23:43:30.665Z,11.95
2022-09-12T23:45:58.936Z,10.90
2022-09-12T23:48:27.419Z,10.65
2022-09-12T23:50:55.810Z,11.73
2022-09-12T23:53:24.385Z,11.30
2022-09-12T23:55:53.737Z,11.05
2022-09-12T23:58:22.670Z,11.07
